Time,TemperatureF,DewpointF,PressureIn,WindDirection,WindDirectionDegrees,WindSpeedMPH,WindSpeedGustMPH,Humidity,HourlyPrecipIn,Conditions,Clouds,dailyrainin,SolarRadiationWatts/m^2,SoftwareType,DateUTC
2013-07-03 00:03:00,71.5,70.0,30.04,SSE,165,0.0,7.0,95,0.00,,,0.34,0,weatherlink.com 1.10,2013-07-03 04:03:00,
2013-07-03 00:18:00,71.5,70.0,30.04,South,191,1.0,7.0,95,0.00,,,0.34,0,weatherlink.com 1.10,2013-07-03 04:18:00,
2013-07-03 00:33:00,71.6,70.0,30.04,SW,236,4.0,5.0,95,0.00,,,0.34,0,weatherlink.com 1.10,2013-07-03 04:33:00,
2013-07-03 00:48:00,71.5,70.0,30.04,SSW,198,1.0,6.0,95,0.00,,,0.34,0,weatherlink.com 1.10,2013-07-03 04:48:00,
2013-07-03 01:03:00,71.5,70.0,30.04,SSW,205,0.0,10.0,95,0.00,,,0.34,0,weatherlink.com 1.10,2013-07-03 05:03:00,
2013-07-03 01:18:00,71.7,70.0,30.04,SW,236,3.0,9.0,95,0.00,,,0.34,0,weatherlink.com 1.10,2013-07-03 05:18:00,
2013-07-03 01:33:00,71.6,70.0,30.05,SW,223,4.0,7.0,94,0.00,,,0.34,0,weatherlink.com 1.10,2013-07-03 05:33:00,
2013-07-03 01:48:00,71.5,70.0,30.05,South,189,2.0,7.0,94,0.00,,,0.34,0,weatherlink.com 1.10,2013-07-03 05:48:00,
2013-07-03 02:18:00,71.1,69.0,30.05,SSE,155,3.0,6.0,94,0.00,,,0.34,0,weatherlink.com 1.10,2013-07-03 06:18:00,
2013-07-03 02:33:00,71.0,69.0,30.05,SW,223,3.0,7.0,94,0.00,,,0.34,0,weatherlink.com 1.10,2013-07-03 06:33:00,
2013-07-03 02:48:00,71.0,69.0,30.05,WSW,238,0.0,7.0,94,0.00,,,0.34,0,weatherlink.com 1.10,2013-07-03 06:48:00,
2013-07-03 03:18:00,70.7,69.0,30.05,WSW,246,5.0,8.0,94,0.00,,,0.34,0,weatherlink.com 1.10,2013-07-03 07:18:00,
2013-07-03 03:48:00,70.5,69.0,30.05,SW,224,3.0,8.0,94,0.00,,,0.00,0,weatherlink.com 1.10,2013-07-03 07:48:00,
2013-07-03 04:18:00,70.5,69.0,30.05,WSW,238,5.0,7.0,94,0.00,,,0.00,0,weatherlink.com 1.10,2013-07-03 08:18:00,
2013-07-03 04:33:00,70.5,69.0,30.05,SSW,195,0.0,7.0,94,0.00,,,0.00,0,weatherlink.com 1.10,2013-07-03 08:33:00,
2013-07-03 04:48:00,70.2,69.0,30.06,SSE,149,2.0,3.0,94,0.00,,,0.00,0,weatherlink.com 1.10,2013-07-03 08:48:00,
2013-07-03 05:03:00,69.9,69.0,30.06,South,173,0.0,5.0,95,0.00,,,0.00,0,weatherlink.com 1.10,2013-07-03 09:03:00,
2013-07-03 05:18:00,69.8,68.0,30.06,SSE,163,1.0,7.0,95,0.00,,,0.00,0,weatherlink.com 1.10,2013-07-03 09:18:00,
2013-07-03 05:48:00,69.7,68.0,30.07,South,178,0.0,6.0,95,0.00,,,0.00,7,weatherlink.com 1.10,2013-07-03 09:48:00,
2013-07-03 06:03:00,69.6,68.0,30.08,SSE,154,0.0,6.0,95,0.00,,,0.00,21,weatherlink.com 1.10,2013-07-03 10:03:00,
2013-07-03 06:18:00,69.7,69.0,30.08,South,188,1.0,5.0,96,0.00,,,0.00,21,weatherlink.com 1.10,2013-07-03 10:18:00,
2013-07-03 06:48:00,70.2,69.0,30.08,South,175,1.0,7.0,95,0.00,,,0.00,49,weatherlink.com 1.10,2013-07-03 10:48:00,
2013-07-03 07:03:00,70.3,69.0,30.09,SSW,206,4.0,6.0,94,0.00,,,0.00,44,weatherlink.com 1.10,2013-07-03 11:03:00,
2013-07-03 07:18:00,70.4,69.0,30.09,West,259,3.0,8.0,94,0.00,,,0.00,53,weatherlink.com 1.10,2013-07-03 11:18:00,
2013-07-03 07:33:00,70.8,69.0,30.10,WSW,242,2.0,8.0,94,0.00,,,0.00,93,weatherlink.com 1.10,2013-07-03 11:33:00,
2013-07-03 07:48:00,71.2,69.0,30.10,WSW,241,4.0,9.0,93,0.00,,,0.00,146,weatherlink.com 1.10,2013-07-03 11:48:00,
2013-07-03 08:03:00,72.1,69.0,30.10,SE,145,0.0,10.0,91,0.00,,,0.00,207,weatherlink.com 1.10,2013-07-03 12:03:00,
2013-07-03 08:18:00,72.9,70.0,30.10,WSW,244,9.0,12.0,90,0.00,,,0.00,209,weatherlink.com 1.10,2013-07-03 12:18:00,
2013-07-03 08:48:00,72.9,70.0,30.11,SSW,208,5.0,11.0,90,0.00,,,0.00,218,weatherlink.com 1.10,2013-07-03 12:48:00,
2013-07-03 09:03:00,73.2,70.0,30.11,SSW,212,7.0,11.0,89,0.00,,,0.00,172,weatherlink.com 1.10,2013-07-03 13:03:00,
2013-07-03 09:18:00,73.6,70.0,30.11,SSE,158,1.0,10.0,89,0.00,,,0.00,232,weatherlink.com 1.10,2013-07-03 13:18:00,
2013-07-03 09:33:00,74.3,71.0,30.12,SW,218,0.0,12.0,88,0.00,,,0.00,322,weatherlink.com 1.10,2013-07-03 13:33:00,
2013-07-03 09:48:00,75.0,71.0,30.11,West,265,4.0,9.0,87,0.00,,,0.00,436,weatherlink.com 1.10,2013-07-03 13:48:00,
2013-07-03 10:04:00,76.7,72.0,30.12,WSW,250,9.0,13.0,84,0.00,,,0.00,694,weatherlink.com 1.10,2013-07-03 14:04:00,
2013-07-03 10:19:00,78.7,73.0,30.12,SW,219,6.0,15.0,82,0.00,,,0.00,960,weatherlink.com 1.10,2013-07-03 14:19:00,
2013-07-03 10:34:00,78.9,72.0,30.12,WSW,250,4.0,17.0,79,0.00,,,0.00,965,weatherlink.com 1.10,2013-07-03 14:34:00,
2013-07-03 10:49:00,79.0,73.0,30.12,WSW,249,4.0,12.0,81,0.00,,,0.00,879,weatherlink.com 1.10,2013-07-03 14:49:00,
2013-07-03 11:19:00,80.1,72.0,30.12,SSW,211,5.0,14.0,76,0.00,,,0.00,863,weatherlink.com 1.10,2013-07-03 15:19:00,
2013-07-03 11:49:00,80.5,74.0,30.11,WSW,246,10.0,12.0,80,0.00,,,0.00,865,weatherlink.com 1.10,2013-07-03 15:49:00,
2013-07-03 12:04:00,80.1,71.0,30.11,SSE,163,2.0,8.0,73,0.00,,,0.00,367,weatherlink.com 1.10,2013-07-03 16:04:00,
2013-07-03 12:49:00,81.4,74.0,30.11,SSW,200,3.0,10.0,79,0.00,,,0.00,1013,weatherlink.com 1.10,2013-07-03 16:49:00,
2013-07-03 13:04:00,81.6,73.0,30.11,SSE,158,0.0,9.0,74,0.00,,,0.00,272,weatherlink.com 1.10,2013-07-03 17:04:00,
2013-07-03 13:19:00,81.5,73.0,30.11,SW,234,3.0,12.0,75,0.00,,,0.00,1107,weatherlink.com 1.10,2013-07-03 17:19:00,
2013-07-03 13:49:00,82.6,74.0,30.10,ESE,102,3.0,8.0,75,0.00,,,0.00,1011,weatherlink.com 1.10,2013-07-03 17:49:00,
2013-07-03 14:04:00,83.0,74.0,30.09,SW,236,3.0,11.0,75,0.00,,,0.00,970,weatherlink.com 1.10,2013-07-03 18:04:00,
2013-07-03 14:19:00,83.1,74.0,30.09,SW,235,2.0,9.0,74,0.00,,,0.00,947,weatherlink.com 1.10,2013-07-03 18:19:00,
2013-07-03 14:34:00,83.9,73.0,30.09,ESE,119,1.0,10.0,70,0.00,,,0.00,949,weatherlink.com 1.10,2013-07-03 18:34:00,
2013-07-03 14:49:00,83.8,73.0,30.09,WSW,248,7.0,9.0,69,0.00,,,0.00,886,weatherlink.com 1.10,2013-07-03 18:49:00,
2013-07-03 15:04:00,84.0,72.0,30.09,SSW,200,1.0,8.0,68,0.00,,,0.00,921,weatherlink.com 1.10,2013-07-03 19:04:00,
2013-07-03 15:19:00,84.7,74.0,30.09,South,176,0.0,11.0,71,0.00,,,0.00,884,weatherlink.com 1.10,2013-07-03 19:19:00,
2013-07-03 15:34:00,84.9,73.0,30.08,SW,236,3.0,7.0,68,0.00,,,0.00,875,weatherlink.com 1.10,2013-07-03 19:34:00,
2013-07-03 15:49:00,84.9,72.0,30.07,WSW,245,2.0,10.0,65,0.00,,,0.00,269,weatherlink.com 1.10,2013-07-03 19:49:00,
2013-07-03 16:04:00,84.6,76.0,30.07,SSE,156,4.0,5.0,74,0.00,,,0.00,292,weatherlink.com 1.10,2013-07-03 20:04:00,
2013-07-03 16:34:00,82.9,73.0,30.07,SSW,198,0.0,5.0,71,0.00,,,0.00,504,weatherlink.com 1.10,2013-07-03 20:34:00,
2013-07-03 16:49:00,83.0,73.0,30.06,SSE,167,0.0,3.0,72,0.00,,,0.00,179,weatherlink.com 1.10,2013-07-03 20:49:00,
2013-07-03 17:04:00,82.0,73.0,30.06,South,186,0.0,7.0,73,0.00,,,0.00,116,weatherlink.com 1.10,2013-07-03 21:04:00,
2013-07-03 17:19:00,80.8,72.0,30.05,South,188,0.0,4.0,75,0.00,,,0.00,105,weatherlink.com 1.10,2013-07-03 21:19:00,
2013-07-03 17:34:00,80.5,73.0,30.05,WNW,287,4.0,7.0,77,0.00,,,0.00,100,weatherlink.com 1.10,2013-07-03 21:34:00,
2013-07-03 17:49:00,80.6,75.0,30.05,WNW,294,1.0,4.0,82,0.00,,,0.00,111,weatherlink.com 1.10,2013-07-03 21:49:00,
2013-07-03 18:04:00,81.1,73.0,30.05,WSW,252,2.0,7.0,77,0.00,,,0.00,155,weatherlink.com 1.10,2013-07-03 22:04:00,
2013-07-03 18:35:00,82.0,73.0,30.06,SSE,168,0.0,6.0,74,0.00,,,0.00,322,weatherlink.com 1.10,2013-07-03 22:35:00,
2013-07-03 18:50:00,81.4,72.0,30.07,SW,235,2.0,6.0,74,0.00,,,0.00,84,weatherlink.com 1.10,2013-07-03 22:50:00,
2013-07-03 19:05:00,80.8,72.0,30.07,South,188,3.0,9.0,74,0.00,,,0.00,69,weatherlink.com 1.10,2013-07-03 23:05:00,
2013-07-03 19:35:00,79.3,72.0,30.08,WSW,240,0.0,6.0,78,0.00,,,0.00,35,weatherlink.com 1.10,2013-07-03 23:35:00,
2013-07-03 19:50:00,78.9,72.0,30.07,SW,234,4.0,7.0,78,0.00,,,0.00,25,weatherlink.com 1.10,2013-07-03 23:50:00,
2013-07-03 20:05:00,78.5,72.0,30.08,WSW,250,5.0,6.0,80,0.00,,,0.00,12,weatherlink.com 1.10,2013-07-04 00:05:00,
2013-07-03 20:20:00,77.8,72.0,30.09,West,267,4.0,6.0,81,0.00,,,0.00,7,weatherlink.com 1.10,2013-07-04 00:20:00,
2013-07-03 20:35:00,76.6,72.0,30.09,West,265,4.0,7.0,84,0.00,,,0.00,0,weatherlink.com 1.10,2013-07-04 00:35:00,
2013-07-03 20:50:00,75.5,71.0,30.09,West,259,4.0,5.0,86,0.00,,,0.00,0,weatherlink.com 1.10,2013-07-04 00:50:00,
2013-07-03 21:05:00,75.4,71.0,30.09,WSW,250,4.0,7.0,85,0.00,,,0.00,0,weatherlink.com 1.10,2013-07-04 01:05:00,
2013-07-03 21:20:00,75.6,71.0,30.09,WSW,246,4.0,7.0,85,0.00,,,0.00,0,weatherlink.com 1.10,2013-07-04 01:20:00,
2013-07-03 21:50:00,75.9,71.0,30.10,WSW,237,6.0,9.0,84,0.00,,,0.00,0,weatherlink.com 1.10,2013-07-04 01:50:00,
2013-07-03 22:05:00,75.7,71.0,30.10,South,187,0.0,8.0,85,0.00,,,0.00,0,weatherlink.com 1.10,2013-07-04 02:05:00,
2013-07-03 22:20:00,75.4,71.0,30.10,South,190,5.0,10.0,85,0.00,,,0.00,0,weatherlink.com 1.10,2013-07-04 02:20:00,
2013-07-03 22:35:00,75.0,71.0,30.10,SW,236,4.0,6.0,86,0.00,,,0.00,0,weatherlink.com 1.10,2013-07-04 02:35:00,
2013-07-03 22:50:00,74.6,71.0,30.10,SW,223,4.0,7.0,87,0.00,,,0.00,0,weatherlink.com 1.10,2013-07-04 02:50:00,
2013-07-03 23:05:00,74.5,71.0,30.10,WSW,248,5.0,9.0,87,0.00,,,0.00,0,weatherlink.com 1.10,2013-07-04 03:05:00,
2013-07-03 23:20:00,74.3,71.0,30.10,SW,227,2.0,11.0,88,0.00,,,0.00,0,weatherlink.com 1.10,2013-07-04 03:20:00,
2013-07-03 23:35:00,74.1,70.0,30.10,SW,219,4.0,9.0,88,0.00,,,0.00,0,weatherlink.com 1.10,2013-07-04 03:35:00,
2013-07-03 23:50:00,73.9,70.0,30.10,South,186,0.0,9.0,88,0.00,,,0.00,0,weatherlink.com 1.10,2013-07-04 03:50:00,